Time;durP1;ratioP1;P1;durP2;ratioP2;P2;SDS_P1;SDS_P2;PMS_P1;PMS_P2;Temp;Humidity;BMP_temperature;BMP_pressure;BME280_temperature;BME280_humidity;BME280_pressure;Samples;Min_cycle;Max_cycle;Signal;HPM_P1;HPM_P2
2021/04/19 00:02:16;;;;;;;43.53;39.37;;;;;;;;;;5076430;28;20492;-70
2021/04/19 00:04:43;;;;;;;41.70;37.90;;;;;;;;;;5075395;28;20478;-70
2021/04/19 00:07:10;;;;;;;46.00;41.40;;;;;;;;;;5076641;28;20486;-70
2021/04/19 00:09:38;;;;;;;43.33;39.13;;;;;;;;;;5076361;28;20442;-70
2021/04/19 00:12:06;;;;;;;44.40;40.20;;;;;;;;;;5075449;28;20436;-70
2021/04/19 00:14:34;;;;;;;44.33;40.00;;;;;;;;;;5076394;28;20486;-70
2021/04/19 00:17:01;;;;;;;45.47;41.20;;;;;;;;;;5076446;28;20407;-70
2021/04/19 00:19:27;;;;;;;40.17;36.90;;;;;;;;;;5076186;28;20889;-70
2021/04/19 00:21:54;;;;;;;41.70;38.00;;;;;;;;;;5076469;28;20498;-69
2021/04/19 00:24:21;;;;;;;38.20;35.20;;;;;;;;;;5076392;28;20759;-70
2021/04/19 00:26:49;;;;;;;44.43;40.63;;;;;;;;;;5075879;28;20437;-70
2021/04/19 00:29:16;;;;;;;51.20;46.57;;;;;;;;;;5075046;28;20477;-70
2021/04/19 00:31:43;;;;;;;44.70;40.80;;;;;;;;;;5075132;28;20438;-70
2021/04/19 00:34:10;;;;;;;45.30;41.80;;;;;;;;;;5074954;28;20415;-71
2021/04/19 00:36:37;;;;;;;46.63;42.83;;;;;;;;;;5074032;28;20477;-70
2021/04/19 00:39:04;;;;;;;42.60;39.40;;;;;;;;;;5074673;28;20412;-71
2021/04/19 00:41:31;;;;;;;42.80;39.50;;;;;;;;;;5076039;28;20437;-70
2021/04/19 00:43:59;;;;;;;43.77;40.07;;;;;;;;;;5075788;28;20980;-70
2021/04/19 00:46:26;;;;;;;44.10;40.50;;;;;;;;;;5074456;28;20916;-71
2021/04/19 00:48:53;;;;;;;45.03;41.70;;;;;;;;;;5076023;28;20489;-70
2021/04/19 00:51:20;;;;;;;43.93;40.63;;;;;;;;;;5075553;28;20439;-71
2021/04/19 00:53:47;;;;;;;43.33;39.90;;;;;;;;;;5075891;28;20885;-70
2021/04/19 00:56:14;;;;;;;47.77;43.90;;;;;;;;;;5075187;28;20472;-70
2021/04/19 00:58:42;;;;;;;47.37;42.83;;;;;;;;;;5075677;28;20437;-70
2021/04/19 01:01:10;;;;;;;50.07;45.03;;;;;;;;;;5075745;28;20507;-71
2021/04/19 01:03:37;;;;;;;52.03;47.20;;;;;;;;;;5075711;28;20441;-70
2021/04/19 01:06:04;;;;;;;55.10;49.23;;;;;;;;;;5075510;28;20436;-71
2021/04/19 01:08:31;;;;;;;51.53;46.20;;;;;;;;;;5075299;28;20427;-71
2021/04/19 01:10:58;;;;;;;53.83;48.33;;;;;;;;;;5075616;28;20438;-70
2021/04/19 01:13:25;;;;;;;52.97;47.33;;;;;;;;;;5075482;28;20438;-70
2021/04/19 01:15:52;;;;;;;51.70;47.20;;;;;;;;;;5057576;28;20827;-71
2021/04/19 01:18:20;;;;;;;55.33;49.60;;;;;;;;;;5075406;28;20430;-70
2021/04/19 01:20:48;;;;;;;48.77;44.87;;;;;;;;;;5075388;28;20416;-71
2021/04/19 01:23:16;;;;;;;48.50;44.23;;;;;;;;;;5075293;28;20408;-71
2021/04/19 01:25:43;;;;;;;45.50;42.00;;;;;;;;;;5075225;28;20850;-70
2021/04/19 01:28:11;;;;;;;50.03;45.53;;;;;;;;;;5075029;28;20413;-70
2021/04/19 01:30:39;;;;;;;49.27;44.27;;;;;;;;;;5074831;28;20437;-71
2021/04/19 01:33:06;;;;;;;47.90;43.87;;;;;;;;;;5074799;28;20416;-71
2021/04/19 01:35:33;;;;;;;48.57;44.63;;;;;;;;;;5073450;28;20477;-70
2021/04/19 01:38:01;;;;;;;46.57;42.67;;;;;;;;;;5074688;28;20423;-71
2021/04/19 01:40:28;;;;;;;49.53;45.40;;;;;;;;;;5074981;28;20438;-71
2021/04/19 01:42:55;;;;;;;49.90;45.00;;;;;;;;;;5074927;28;20933;-70
2021/04/19 01:45:23;;;;;;;49.10;44.60;;;;;;;;;;5073407;28;20445;-70
2021/04/19 01:47:49;;;;;;;48.03;44.10;;;;;;;;;;5074126;28;20482;-71
2021/04/19 01:50:18;;;;;;;50.10;45.57;;;;;;;;;;5074450;28;20430;-70
2021/04/19 01:52:45;;;;;;;49.70;45.40;;;;;;;;;;5074393;28;20434;-70
2021/04/19 01:55:15;;;;;;;46.20;42.33;;;;;;;;;;5074325;28;20475;-71
2021/04/19 01:57:43;;;;;;;52.33;47.67;;;;;;;;;;5074186;28;20407;-73
2021/04/19 02:00:11;;;;;;;50.37;45.97;;;;;;;;;;5073301;28;20423;-71
2021/04/19 02:02:41;;;;;;;47.30;43.40;;;;;;;;;;5074290;28;20781;-71
2021/04/19 02:05:12;;;;;;;50.23;45.60;;;;;;;;;;5072854;28;20469;-70
2021/04/19 02:07:42;;;;;;;47.00;42.90;;;;;;;;;;5074484;28;20448;-71
2021/04/19 02:10:11;;;;;;;43.87;40.53;;;;;;;;;;5074330;28;20409;-71
2021/04/19 02:12:42;;;;;;;48.20;43.90;;;;;;;;;;5074043;28;20408;-70
2021/04/19 02:15:12;;;;;;;46.30;42.27;;;;;;;;;;5074101;28;20480;-71
2021/04/19 02:17:41;;;;;;;44.70;40.80;;;;;;;;;;5074286;28;20789;-71
2021/04/19 02:20:12;;;;;;;46.40;42.70;;;;;;;;;;5073908;28;20900;-70
2021/04/19 02:22:41;;;;;;;41.60;38.10;;;;;;;;;;5074219;28;20429;-70
2021/04/19 02:25:13;;;;;;;42.83;39.43;;;;;;;;;;5074081;28;20511;-70
2021/04/19 02:27:44;;;;;;;40.73;37.80;;;;;;;;;;5073925;28;20438;-70
2021/04/19 02:30:13;;;;;;;41.13;37.73;;;;;;;;;;5072663;28;20533;-70
2021/04/19 02:32:43;;;;;;;42.77;39.23;;;;;;;;;;5073731;28;20408;-70
2021/04/19 02:35:12;;;;;;;42.67;39.07;;;;;;;;;;5072521;28;20488;-70
2021/04/19 02:37:39;;;;;;;41.60;38.50;;;;;;;;;;5072462;28;20784;-70
2021/04/19 02:40:07;;;;;;;41.73;38.43;;;;;;;;;;5073614;28;20886;-71
2021/04/19 02:42:36;;;;;;;45.17;41.23;;;;;;;;;;5073822;28;20413;-70
2021/04/19 02:45:04;;;;;;;44.43;40.53;;;;;;;;;;5073465;28;20400;-70
2021/04/19 02:47:31;;;;;;;44.63;40.70;;;;;;;;;;5073748;28;20414;-70
2021/04/19 02:49:58;;;;;;;44.73;40.80;;;;;;;;;;5072133;28;20764;-70
2021/04/19 02:52:26;;;;;;;45.20;41.20;;;;;;;;;;5072209;28;20806;-71
2021/04/19 02:54:53;;;;;;;44.00;40.30;;;;;;;;;;5073488;28;20819;-70
2021/04/19 02:57:24;;;;;;;44.67;40.87;;;;;;;;;;5073012;28;20460;-70
2021/04/19 02:59:52;;;;;;;41.67;38.10;;;;;;;;;;5073231;28;20419;-70
2021/04/19 03:02:20;;;;;;;44.17;40.40;;;;;;;;;;5073592;28;20412;-70
2021/04/19 03:04:48;;;;;;;43.60;40.00;;;;;;;;;;5073442;28;20823;-70
2021/04/19 03:07:16;;;;;;;44.67;40.97;;;;;;;;;;5073257;28;20417;-70
2021/04/19 03:09:44;;;;;;;41.70;38.10;;;;;;;;;;5055919;28;20806;-72
2021/04/19 03:12:13;;;;;;;40.13;36.90;;;;;;;;;;5073301;28;20431;-71
2021/04/19 03:14:40;;;;;;;39.57;36.27;;;;;;;;;;5073190;28;20423;-70
2021/04/19 03:17:09;;;;;;;38.50;35.20;;;;;;;;;;5073563;28;20759;-70
2021/04/19 03:19:40;;;;;;;38.07;34.97;;;;;;;;;;5072388;28;20433;-70
2021/04/19 03:22:08;;;;;;;38.30;35.20;;;;;;;;;;5073217;28;20441;-70
2021/04/19 03:24:36;;;;;;;36.43;33.83;;;;;;;;;;5073461;28;20440;-71
2021/04/19 03:27:04;;;;;;;38.17;34.93;;;;;;;;;;5072999;28;20415;-71
2021/04/19 03:29:32;;;;;;;39.53;36.20;;;;;;;;;;5073400;28;20441;-70
2021/04/19 03:32:01;;;;;;;39.90;36.50;;;;;;;;;;5073418;28;20443;-71
2021/04/19 03:34:30;;;;;;;38.30;35.10;;;;;;;;;;5073116;28;20415;-70
2021/04/19 03:37:00;;;;;;;39.63;36.20;;;;;;;;;;5073373;28;20501;-70
2021/04/19 03:39:27;;;;;;;42.03;38.70;;;;;;;;;;5073354;28;20440;-70
2021/04/19 03:41:55;;;;;;;40.53;37.20;;;;;;;;;;5073419;28;20416;-70
2021/04/19 03:44:25;;;;;;;42.93;39.30;;;;;;;;;;5072909;28;20908;-71
2021/04/19 03:46:54;;;;;;;38.90;35.73;;;;;;;;;;5073236;28;20411;-70
2021/04/19 03:49:28;;;;;;;41.03;37.67;;;;;;;;;;5073265;28;20408;-71
2021/04/19 03:51:57;;;;;;;37.43;34.53;;;;;;;;;;5072938;28;20473;-71
2021/04/19 03:54:25;;;;;;;39.35;36.00;;;;;;;;;;5072717;28;20852;-71
2021/04/19 03:56:52;;;;;;;38.10;34.90;;;;;;;;;;5072479;28;20331;-71
2021/04/19 03:59:20;;;;;;;40.25;36.92;;;;;;;;;;5072890;28;20425;-70
2021/04/19 04:01:48;;;;;;;42.30;38.03;;;;;;;;;;5071971;28;20194;-71
2021/04/19 04:04:15;;;;;;;41.95;38.20;;;;;;;;;;5071562;28;20628;-71
2021/04/19 04:06:42;;;;;;;41.07;37.27;;;;;;;;;;5072689;28;20699;-70
2021/04/19 04:09:10;;;;;;;39.60;36.20;;;;;;;;;;5073120;28;20412;-70
2021/04/19 04:11:38;;;;;;;42.40;38.35;;;;;;;;;;5073821;28;20444;-71
2021/04/19 04:14:05;;;;;;;41.63;37.70;;;;;;;;;;5076673;28;20201;-70
2021/04/19 04:16:32;;;;;;;41.17;37.37;;;;;;;;;;5076543;28;20473;-70
2021/04/19 04:18:59;;;;;;;42.42;38.30;;;;;;;;;;5076247;28;20433;-70
2021/04/19 04:21:27;;;;;;;40.83;36.88;;;;;;;;;;5076239;28;20202;-70
2021/04/19 04:23:54;;;;;;;39.90;36.40;;;;;;;;;;5075161;28;20713;-70
2021/04/19 04:26:21;;;;;;;41.53;37.70;;;;;;;;;;5075944;28;20667;-70
2021/04/19 04:28:49;;;;;;;39.38;35.70;;;;;;;;;;5076272;28;20198;-70
2021/04/19 04:31:16;;;;;;;39.73;36.13;;;;;;;;;;5076030;28;20717;-70
2021/04/19 04:33:43;;;;;;;41.33;37.50;;;;;;;;;;5076263;28;20499;-70
2021/04/19 04:36:10;;;;;;;44.50;40.07;;;;;;;;;;5076047;28;20556;-70
2021/04/19 04:38:37;;;;;;;43.55;39.50;;;;;;;;;;5075860;28;20437;-71
2021/04/19 04:41:04;;;;;;;45.33;40.83;;;;;;;;;;5076327;28;20229;-70
2021/04/19 04:43:35;;;;;;;43.93;39.70;;;;;;;;;;5074679;28;20194;-70
2021/04/19 04:46:06;;;;;;;42.38;38.38;;;;;;;;;;5075544;28;20865;-71
2021/04/19 04:48:38;;;;;;;46.42;41.63;;;;;;;;;;5075982;28;20190;-70
2021/04/19 04:51:06;;;;;;;44.03;39.77;;;;;;;;;;5075616;28;20644;-70
2021/04/19 04:53:35;;;;;;;42.53;38.63;;;;;;;;;;5075554;28;20531;-70
2021/04/19 04:56:02;;;;;;;42.53;38.53;;;;;;;;;;5075413;28;20704;-70
2021/04/19 04:58:30;;;;;;;42.15;38.20;;;;;;;;;;5075339;28;20191;-69
2021/04/19 05:00:58;;;;;;;43.23;39.13;;;;;;;;;;5074583;28;20226;-69
2021/04/19 05:03:27;;;;;;;42.92;38.83;;;;;;;;;;5074433;28;20511;-70
2021/04/19 05:05:54;;;;;;;41.27;37.37;;;;;;;;;;5057662;28;20238;-70
2021/04/19 05:08:21;;;;;;;41.35;37.60;;;;;;;;;;5057882;28;20795;-70
2021/04/19 05:10:48;;;;;;;41.63;37.65;;;;;;;;;;5075306;28;20195;-69
2021/04/19 05:13:16;;;;;;;43.92;39.75;;;;;;;;;;5075238;28;20667;-71
2021/04/19 05:15:43;;;;;;;40.78;36.42;;;;;;;;;;5075061;28;20237;-71
2021/04/19 05:18:14;;;;;;;41.60;37.63;;;;;;;;;;5075450;28;20581;-70
2021/04/19 05:20:41;;;;;;;42.08;38.08;;;;;;;;;;5075395;28;20221;-71
2021/04/19 05:23:08;;;;;;;42.60;38.67;;;;;;;;;;5075233;28;20213;-70
2021/04/19 05:25:35;;;;;;;44.20;39.60;;;;;;;;;;5074044;28;20195;-70
2021/04/19 05:28:03;;;;;;;40.93;36.90;;;;;;;;;;5073896;28;20425;-69
2021/04/19 05:30:30;;;;;;;44.57;39.87;;;;;;;;;;5074941;28;20437;-70
2021/04/19 05:32:58;;;;;;;43.50;39.10;;;;;;;;;;5074843;28;20404;-69
2021/04/19 05:35:25;;;;;;;43.03;38.67;;;;;;;;;;5074994;28;20532;-70
2021/04/19 05:37:54;;;;;;;40.80;37.20;;;;;;;;;;5073954;28;20411;-70
2021/04/19 05:40:21;;;;;;;42.57;38.60;;;;;;;;;;5074662;28;20841;-70
2021/04/19 05:42:48;;;;;;;41.67;37.77;;;;;;;;;;5075056;28;20444;-71
2021/04/19 05:45:16;;;;;;;40.83;36.83;;;;;;;;;;5074560;28;20494;-69
2021/04/19 05:47:44;;;;;;;43.00;38.93;;;;;;;;;;5073598;28;20775;-69
2021/04/19 05:50:11;;;;;;;41.97;37.70;;;;;;;;;;5073251;28;20879;-70
2021/04/19 05:52:38;;;;;;;43.80;39.50;;;;;;;;;;5074755;28;20404;-70
2021/04/19 05:55:07;;;;;;;44.00;39.63;;;;;;;;;;5074005;28;20444;-69
2021/04/19 05:57:37;;;;;;;44.03;39.63;;;;;;;;;;5074508;28;20434;-70
2021/04/19 06:00:07;;;;;;;41.43;37.43;;;;;;;;;;5074544;28;20420;-69
2021/04/19 06:02:42;;;;;;;41.80;37.60;;;;;;;;;;5075373;28;20426;-70
2021/04/19 06:05:15;;;;;;;43.80;39.30;;;;;;;;;;5074098;28;20461;-70
2021/04/19 06:07:43;;;;;;;47.27;42.43;;;;;;;;;;5074187;28;20419;-70
2021/04/19 06:10:15;;;;;;;43.40;38.70;;;;;;;;;;5073186;28;20999;-70
2021/04/19 06:12:45;;;;;;;42.93;38.63;;;;;;;;;;5074014;28;20922;-70
2021/04/19 06:15:14;;;;;;;43.27;38.97;;;;;;;;;;5074142;28;20508;-70
2021/04/19 06:17:43;;;;;;;41.23;36.97;;;;;;;;;;5074346;28;20451;-70
2021/04/19 06:20:11;;;;;;;44.20;39.63;;;;;;;;;;5074149;28;20441;-69
2021/04/19 06:22:38;;;;;;;45.20;40.50;;;;;;;;;;5074274;28;20408;-70
2021/04/19 06:25:05;;;;;;;45.27;40.87;;;;;;;;;;5072675;28;20437;-69
2021/04/19 06:27:33;;;;;;;44.37;39.60;;;;;;;;;;5073990;28;20409;-70
2021/04/19 06:30:11;;;;;;;43.83;39.47;;;;;;;;;;5074083;28;20408;-70
2021/04/19 06:32:40;;;;;;;43.60;39.37;;;;;;;;;;5074096;28;20407;-70
2021/04/19 06:35:08;;;;;;;44.10;39.77;;;;;;;;;;5073058;28;20782;-70
2021/04/19 06:37:35;;;;;;;41.80;37.60;;;;;;;;;;5072733;28;20423;-69
2021/04/19 06:40:03;;;;;;;42.80;38.60;;;;;;;;;;5072483;28;20920;-70
2021/04/19 06:42:30;;;;;;;43.87;39.53;;;;;;;;;;5072736;28;20444;-70
2021/04/19 06:45:00;;;;;;;42.70;38.70;;;;;;;;;;5072486;28;20420;-70
2021/04/19 06:47:29;;;;;;;42.30;38.30;;;;;;;;;;5073871;28;20411;-70
2021/04/19 06:49:57;;;;;;;42.57;38.60;;;;;;;;;;5073843;28;20413;-69
2021/04/19 06:52:24;;;;;;;41.93;37.80;;;;;;;;;;5073786;28;20411;-70
2021/04/19 06:54:51;;;;;;;41.30;37.50;;;;;;;;;;5073328;28;20423;-69
2021/04/19 06:57:19;;;;;;;41.10;37.30;;;;;;;;;;5071832;28;21055;-68
2021/04/19 06:59:46;;;;;;;40.13;36.30;;;;;;;;;;5073394;28;20918;-69
2021/04/19 07:02:17;;;;;;;41.60;37.50;;;;;;;;;;5073347;28;20932;-69
2021/04/19 07:04:44;;;;;;;41.63;37.53;;;;;;;;;;5073577;28;20436;-69
2021/04/19 07:07:15;;;;;;;40.63;36.93;;;;;;;;;;5073659;28;20466;-69
2021/04/19 07:09:44;;;;;;;39.07;35.60;;;;;;;;;;5073674;28;20437;-69
2021/04/19 07:12:13;;;;;;;38.03;34.27;;;;;;;;;;5072118;28;20893;-69
2021/04/19 07:14:40;;;;;;;40.30;36.60;;;;;;;;;;5073548;28;20413;-69
2021/04/19 07:17:07;;;;;;;39.80;36.17;;;;;;;;;;5073080;28;20970;-68
2021/04/19 07:19:34;;;;;;;35.80;32.27;;;;;;;;;;5073320;28;20409;-69
2021/04/19 07:22:01;;;;;;;39.97;36.33;;;;;;;;;;5073526;28;20437;-69
2021/04/19 07:24:28;;;;;;;38.87;35.33;;;;;;;;;;5073437;28;20434;-68
2021/04/19 07:26:56;;;;;;;41.03;37.13;;;;;;;;;;5080824;28;20452;-69
2021/04/19 07:29:23;;;;;;;39.40;35.77;;;;;;;;;;5082214;28;20410;-69
2021/04/19 07:31:51;;;;;;;36.90;33.60;;;;;;;;;;5080012;28;20425;-69
2021/04/19 07:34:19;;;;;;;39.70;36.20;;;;;;;;;;5083382;28;20437;-68
2021/04/19 07:36:51;;;;;;;37.53;34.27;;;;;;;;;;5072597;28;20456;-69
2021/04/19 07:39:20;;;;;;;39.10;35.53;;;;;;;;;;5073368;28;20426;-69
2021/04/19 07:41:49;;;;;;;36.30;33.20;;;;;;;;;;5073149;28;20449;-69
2021/04/19 07:44:35;;;;;;;36.17;33.07;;;;;;;;;;5073222;28;20513;-68
2021/04/19 07:47:25;;;;;;;38.60;35.23;;;;;;;;;;5076287;28;20911;-69
2021/04/19 07:49:59;;;;;;;35.77;32.50;;;;;;;;;;5077629;28;20784;-69
2021/04/19 07:52:27;;;;;;;37.03;33.73;;;;;;;;;;5077812;28;20483;-68
2021/04/19 07:55:08;;;;;;;36.20;33.17;;;;;;;;;;5076923;28;20874;-71
2021/04/19 07:57:35;;;;;;;35.27;32.27;;;;;;;;;;5076522;28;20412;-70
2021/04/19 08:00:02;;;;;;;35.23;32.10;;;;;;;;;;5076547;28;20878;-70
2021/04/19 08:02:29;;;;;;;36.60;33.40;;;;;;;;;;5076557;28;20909;-71
2021/04/19 08:04:56;;;;;;;35.03;31.87;;;;;;;;;;5075253;28;20465;-71
2021/04/19 08:07:24;;;;;;;35.50;32.07;;;;;;;;;;5076426;28;20947;-71
2021/04/19 08:09:55;;;;;;;35.80;32.73;;;;;;;;;;5076453;28;20423;-70
2021/04/19 08:12:31;;;;;;;34.00;31.20;;;;;;;;;;5075406;28;20466;-70
2021/04/19 08:14:58;;;;;;;34.30;31.40;;;;;;;;;;5076633;28;20487;-71
2021/04/19 08:17:27;;;;;;;37.60;34.50;;;;;;;;;;5076158;28;20517;-70
2021/04/19 08:19:56;;;;;;;35.60;32.50;;;;;;;;;;5076139;28;20408;-71
2021/04/19 08:22:27;;;;;;;34.47;31.53;;;;;;;;;;5076148;28;20443;-71
2021/04/19 08:25:09;;;;;;;32.20;29.50;;;;;;;;;;5076116;28;20448;-71
2021/04/19 08:27:36;;;;;;;32.53;29.90;;;;;;;;;;5076109;28;20458;-71
2021/04/19 08:30:04;;;;;;;32.20;29.60;;;;;;;;;;5076414;28;20412;-72
2021/04/19 08:32:32;;;;;;;34.60;31.70;;;;;;;;;;5075995;28;20972;-70
2021/04/19 08:34:59;;;;;;;33.17;30.47;;;;;;;;;;5075993;28;20421;-71
2021/04/19 08:37:28;;;;;;;33.37;30.47;;;;;;;;;;5076090;28;20452;-71
2021/04/19 08:39:56;;;;;;;29.50;27.30;;;;;;;;;;5075876;28;20416;-70
2021/04/19 08:42:25;;;;;;;31.03;28.50;;;;;;;;;;5074662;28;20416;-71
2021/04/19 08:44:53;;;;;;;31.67;29.17;;;;;;;;;;5075729;28;20434;-71
2021/04/19 08:47:20;;;;;;;32.37;29.87;;;;;;;;;;5076011;28;20438;-71
2021/04/19 08:49:47;;;;;;;32.80;30.30;;;;;;;;;;5076049;28;20444;-71
2021/04/19 08:52:15;;;;;;;36.40;33.30;;;;;;;;;;5076005;28;20499;-71
2021/04/19 08:54:42;;;;;;;34.70;31.90;;;;;;;;;;5075413;28;20444;-71
2021/04/19 08:57:09;;;;;;;32.83;29.93;;;;;;;;;;5074559;28;20493;-71
2021/04/19 08:59:37;;;;;;;34.37;31.50;;;;;;;;;;5075520;28;20437;-71
2021/04/19 09:02:05;;;;;;;33.03;30.13;;;;;;;;;;5075514;28;20445;-71
2021/04/19 09:04:32;;;;;;;34.23;31.23;;;;;;;;;;5075269;28;20444;-71
2021/04/19 09:06:59;;;;;;;33.47;30.67;;;;;;;;;;5075691;28;20433;-71
2021/04/19 09:09:36;;;;;;;34.27;31.37;;;;;;;;;;5075338;28;20439;-70
2021/04/19 09:12:17;;;;;;;32.00;29.40;;;;;;;;;;5075577;28;20437;-71
2021/04/19 09:14:45;;;;;;;32.80;30.07;;;;;;;;;;5075478;28;20404;-71
2021/04/19 09:17:23;;;;;;;31.50;29.13;;;;;;;;;;5075094;28;20917;-71
2021/04/19 09:19:55;;;;;;;33.20;30.00;;;;;;;;;;5075226;28;20405;-71
2021/04/19 09:22:22;;;;;;;31.60;29.03;;;;;;;;;;5075136;28;20820;-71
2021/04/19 09:25:00;;;;;;;31.33;28.80;;;;;;;;;;5075361;28;20474;-71
2021/04/19 09:27:43;;;;;;;33.10;30.30;;;;;;;;;;5075175;28;20445;-72
2021/04/19 09:30:36;;;;;;;33.13;30.13;;;;;;;;;;5075156;28;20747;-71
2021/04/19 09:33:21;;;;;;;35.07;32.20;;;;;;;;;;5074919;28;20438;-71
2021/04/19 09:35:50;;;;;;;36.37;33.17;;;;;;;;;;5075193;28;20790;-71
2021/04/19 09:38:18;;;;;;;36.37;33.40;;;;;;;;;;5074714;28;20783;-72
2021/04/19 09:40:48;;;;;;;35.30;32.30;;;;;;;;;;5075649;28;20412;-71
2021/04/19 09:43:30;;;;;;;33.93;31.30;;;;;;;;;;5075116;28;20794;-71
2021/04/19 09:45:59;;;;;;;31.60;29.07;;;;;;;;;;5074555;28;20445;-72
2021/04/19 09:48:39;;;;;;;32.53;30.03;;;;;;;;;;5074607;28;20445;-71
2021/04/19 09:51:12;;;;;;;33.53;31.03;;;;;;;;;;5074810;28;20516;-72
2021/04/19 09:53:39;;;;;;;35.17;32.27;;;;;;;;;;5074394;28;20470;-71
2021/04/19 09:56:06;;;;;;;36.07;33.17;;;;;;;;;;5074220;28;20486;-72
2021/04/19 09:58:33;;;;;;;34.37;31.57;;;;;;;;;;5074326;28;20452;-72
2021/04/19 10:01:01;;;;;;;32.57;29.93;;;;;;;;;;5073832;28;20458;-71
2021/04/19 10:03:28;;;;;;;34.33;31.53;;;;;;;;;;5074514;28;20422;-71
2021/04/19 10:05:56;;;;;;;34.47;31.67;;;;;;;;;;5074338;28;20504;-72
2021/04/19 10:08:23;;;;;;;35.97;32.87;;;;;;;;;;5074335;28;20416;-72
2021/04/19 10:10:52;;;;;;;37.03;33.93;;;;;;;;;;5073755;28;20412;-72
2021/04/19 10:13:28;;;;;;;38.07;34.60;;;;;;;;;;5074065;28;20472;-84
2021/04/19 10:16:06;;;;;;;41.57;37.63;;;;;;;;;;5074374;28;20517;-72
2021/04/19 10:18:33;;;;;;;36.03;32.87;;;;;;;;;;5074319;28;20420;-72
2021/04/19 10:21:00;;;;;;;36.43;33.30;;;;;;;;;;5074248;28;20837;-71
2021/04/19 10:23:34;;;;;;;39.97;36.37;;;;;;;;;;5074212;28;20434;-71
2021/04/19 10:26:01;;;;;;;38.77;35.27;;;;;;;;;;5074100;28;20500;-71
2021/04/19 10:28:29;;;;;;;40.30;36.70;;;;;;;;;;5073690;28;20438;-71
2021/04/19 10:31:11;;;;;;;41.00;37.30;;;;;;;;;;5074114;28;20446;-71
2021/04/19 10:33:38;;;;;;;39.90;36.30;;;;;;;;;;5073797;28;20445;-71
2021/04/19 10:36:11;;;;;;;37.87;34.73;;;;;;;;;;5073899;28;20464;-72
2021/04/19 10:38:38;;;;;;;37.10;33.90;;;;;;;;;;5073848;28;20428;-71
2021/04/19 10:41:05;;;;;;;36.53;33.43;;;;;;;;;;5074362;28;20419;-72
2021/04/19 10:43:32;;;;;;;35.40;32.50;;;;;;;;;;5073913;28;20404;-72
2021/04/19 10:45:59;;;;;;;34.50;31.50;;;;;;;;;;5073759;28;20491;-72
2021/04/19 10:48:29;;;;;;;35.90;32.93;;;;;;;;;;5073811;28;20461;-71
2021/04/19 10:50:59;;;;;;;36.70;33.13;;;;;;;;;;5073532;28;20434;-71
2021/04/19 10:53:33;;;;;;;36.07;33.27;;;;;;;;;;5073839;28;20413;-71
2021/04/19 10:56:00;;;;;;;33.20;30.70;;;;;;;;;;5073330;28;20576;-72
2021/04/19 10:58:27;;;;;;;33.07;30.47;;;;;;;;;;5073426;28;20766;-71
2021/04/19 11:00:54;;;;;;;33.93;31.00;;;;;;;;;;5073334;28;20893;-72
2021/04/19 11:03:21;;;;;;;37.00;33.93;;;;;;;;;;5073393;28;20473;-72
2021/04/19 11:05:49;;;;;;;37.00;33.97;;;;;;;;;;5073349;28;20480;-72
2021/04/19 11:08:16;;;;;;;36.50;33.43;;;;;;;;;;5073391;28;20438;-73
2021/04/19 11:10:43;;;;;;;34.70;31.90;;;;;;;;;;5073730;28;20412;-71
2021/04/19 11:13:11;;;;;;;35.07;32.17;;;;;;;;;;5073519;28;20790;-70
2021/04/19 11:15:39;;;;;;;35.50;32.50;;;;;;;;;;5073252;28;20431;-70
2021/04/19 11:18:16;;;;;;;36.43;33.63;;;;;;;;;;5073452;28;20410;-70
2021/04/19 11:20:43;;;;;;;38.30;35.10;;;;;;;;;;5074386;28;20879;-74
2021/04/19 11:23:21;;;;;;;37.37;34.40;;;;;;;;;;5077215;28;20433;-71
2021/04/19 11:25:48;;;;;;;36.53;33.80;;;;;;;;;;5077608;28;20414;-71
2021/04/19 11:28:19;;;;;;;36.03;33.13;;;;;;;;;;5077464;28;20420;-72
2021/04/19 11:30:47;;;;;;;33.53;30.73;;;;;;;;;;5074780;28;20478;-71
2021/04/19 11:33:14;;;;;;;36.13;32.50;;;;;;;;;;5077476;28;20428;-71
2021/04/19 11:35:42;;;;;;;33.83;31.23;;;;;;;;;;5077224;28;20424;-71
2021/04/19 11:38:10;;;;;;;35.40;32.47;;;;;;;;;;5077003;28;20416;-71
2021/04/19 11:40:40;;;;;;;34.13;31.60;;;;;;;;;;5076966;28;20440;-71
2021/04/19 11:43:24;;;;;;;31.70;29.43;;;;;;;;;;5077131;28;20426;-70
2021/04/19 11:45:56;;;;;;;31.40;28.90;;;;;;;;;;5077093;28;20764;-71
2021/04/19 11:48:22;;;;;;;31.80;29.50;;;;;;;;;;5077129;28;20411;-71
2021/04/19 11:50:49;;;;;;;31.90;29.60;;;;;;;;;;5076993;28;20443;-72
2021/04/19 11:53:23;;;;;;;33.13;30.53;;;;;;;;;;5076756;28;20448;-71
2021/04/19 11:55:52;;;;;;;32.40;29.90;;;;;;;;;;5076392;28;20477;-71
2021/04/19 11:58:19;;;;;;;34.70;32.23;;;;;;;;;;5076860;28;20765;-71
2021/04/19 12:00:48;;;;;;;32.40;30.00;;;;;;;;;;5076908;28;20469;-71
2021/04/19 12:03:15;;;;;;;36.70;33.90;;;;;;;;;;5076896;28;20414;-71
2021/04/19 12:05:42;;;;;;;34.60;31.90;;;;;;;;;;5076553;28;20461;-71
2021/04/19 12:08:09;;;;;;;35.80;32.90;;;;;;;;;;5076833;28;20405;-71
2021/04/19 12:10:36;;;;;;;35.37;32.53;;;;;;;;;;5076543;28;20451;-71
2021/04/19 12:13:04;;;;;;;35.40;32.57;;;;;;;;;;5076349;28;20460;-71
2021/04/19 12:15:31;;;;;;;34.17;31.47;;;;;;;;;;5076605;28;20430;-71
2021/04/19 12:17:58;;;;;;;35.90;33.13;;;;;;;;;;5076496;28;20516;-71
2021/04/19 12:20:25;;;;;;;32.70;30.30;;;;;;;;;;5076599;28;20900;-71
2021/04/19 12:22:52;;;;;;;32.93;30.43;;;;;;;;;;5076231;28;20768;-71
2021/04/19 12:25:18;;;;;;;34.00;31.50;;;;;;;;;;5076039;28;20533;-71
2021/04/19 12:27:45;;;;;;;37.30;34.40;;;;;;;;;;5074853;28;20420;-71
2021/04/19 12:30:14;;;;;;;34.43;31.73;;;;;;;;;;5076120;28;20435;-71
2021/04/19 12:32:41;;;;;;;36.43;33.63;;;;;;;;;;5075354;28;20790;-71
2021/04/19 12:35:08;;;;;;;35.30;32.50;;;;;;;;;;5076242;28;20424;-71
2021/04/19 12:37:35;;;;;;;37.17;34.17;;;;;;;;;;5076200;28;20853;-72
2021/04/19 12:40:02;;;;;;;35.27;32.63;;;;;;;;;;5075980;28;20421;-71
2021/04/19 12:42:29;;;;;;;33.33;30.93;;;;;;;;;;5075578;28;20447;-71
2021/04/19 12:44:56;;;;;;;34.43;31.83;;;;;;;;;;5075917;28;20479;-72
2021/04/19 12:47:24;;;;;;;33.27;30.77;;;;;;;;;;5075690;28;20787;-71
2021/04/19 12:49:51;;;;;;;33.30;30.83;;;;;;;;;;5075727;28;20421;-71
2021/04/19 12:52:18;;;;;;;33.80;31.20;;;;;;;;;;5076070;28;20438;-71
2021/04/19 12:54:45;;;;;;;33.83;31.30;;;;;;;;;;5075887;28;20418;-71
2021/04/19 12:57:12;;;;;;;35.13;32.43;;;;;;;;;;5075248;28;20508;-70
2021/04/19 12:59:39;;;;;;;34.60;31.90;;;;;;;;;;5075541;28;20433;-71
2021/04/19 13:02:06;;;;;;;30.63;28.50;;;;;;;;;;5075802;28;20443;-71
2021/04/19 13:04:34;;;;;;;32.03;29.63;;;;;;;;;;5074207;28;20466;-71
2021/04/19 13:07:01;;;;;;;31.77;29.47;;;;;;;;;;5075494;28;20411;-71
2021/04/19 13:09:28;;;;;;;33.57;31.17;;;;;;;;;;5075370;28;20403;-71
2021/04/19 13:11:55;;;;;;;31.10;28.83;;;;;;;;;;5075625;28;20432;-71
2021/04/19 13:14:24;;;;;;;30.33;28.17;;;;;;;;;;5075231;28;20803;-71
2021/04/19 13:16:51;;;;;;;30.37;28.17;;;;;;;;;;5074049;28;20518;-71
2021/04/19 13:19:18;;;;;;;31.20;28.60;;;;;;;;;;5074077;28;20458;-71
2021/04/19 13:21:45;;;;;;;28.90;26.70;;;;;;;;;;5075442;28;20446;-71
2021/04/19 13:24:12;;;;;;;31.10;28.80;;;;;;;;;;5075095;28;20449;-71
2021/04/19 13:26:39;;;;;;;31.30;28.90;;;;;;;;;;5075234;28;20799;-71
2021/04/19 13:29:07;;;;;;;33.10;30.60;;;;;;;;;;5075088;28;20426;-71
2021/04/19 13:31:34;;;;;;;34.60;32.00;;;;;;;;;;5074884;28;20817;-71
2021/04/19 13:34:01;;;;;;;33.17;30.77;;;;;;;;;;5073779;28;20909;-71
2021/04/19 13:36:28;;;;;;;32.30;29.97;;;;;;;;;;5074847;28;20810;-71
2021/04/19 13:38:55;;;;;;;33.33;31.03;;;;;;;;;;5074794;28;20464;-71
2021/04/19 13:41:22;;;;;;;33.90;31.30;;;;;;;;;;5074740;28;20446;-71
2021/04/19 13:43:49;;;;;;;35.63;32.83;;;;;;;;;;5074575;28;20435;-71
2021/04/19 13:46:16;;;;;;;36.17;33.40;;;;;;;;;;5074865;28;20436;-71
2021/04/19 13:48:43;;;;;;;34.43;31.73;;;;;;;;;;5074993;28;20418;-71
2021/04/19 13:51:10;;;;;;;31.97;29.67;;;;;;;;;;5074476;28;20447;-71
2021/04/19 13:53:36;;;;;;;32.87;30.27;;;;;;;;;;5074623;28;20449;-71
2021/04/19 13:56:08;;;;;;;32.50;30.20;;;;;;;;;;5074609;28;20566;-71
2021/04/19 13:58:34;;;;;;;31.13;28.73;;;;;;;;;;5074474;28;20417;-71
2021/04/19 14:01:02;;;;;;;31.17;28.83;;;;;;;;;;5074847;28;20446;-71
2021/04/19 14:03:28;;;;;;;32.57;30.27;;;;;;;;;;5074949;28;20439;-71
2021/04/19 14:05:55;;;;;;;29.77;27.77;;;;;;;;;;5074477;28;20428;-71
2021/04/19 14:08:22;;;;;;;32.93;30.53;;;;;;;;;;5073987;28;20406;-71
2021/04/19 14:10:49;;;;;;;31.70;29.50;;;;;;;;;;5073678;28;20403;-71
2021/04/19 14:13:17;;;;;;;31.57;29.30;;;;;;;;;;5073210;28;20432;-71
2021/04/19 14:15:44;;;;;;;32.83;30.43;;;;;;;;;;5073496;28;20412;-71
2021/04/19 14:18:11;;;;;;;31.53;29.33;;;;;;;;;;5072681;28;20823;-71
2021/04/19 14:20:38;;;;;;;33.90;31.50;;;;;;;;;;5072552;28;20529;-74
2021/04/19 14:23:05;;;;;;;34.33;31.73;;;;;;;;;;5073925;28;20488;-71
2021/04/19 14:25:32;;;;;;;34.07;31.50;;;;;;;;;;5073816;28;20443;-71